Time;durP1;ratioP1;P1;durP2;ratioP2;P2;SDS_P1;SDS_P2;PMS_P1;PMS_P2;Temp;Humidity;BMP_temperature;BMP_pressure;BME280_temperature;BME280_humidity;BME280_pressure;Samples;Min_cycle;Max_cycle;Signal;HPM_P1;HPM_P2
2023/06/12 00:01:12;;;;;;;5.47;2.57;;;14.50;99.10;;;;;;5088965;28;20407;-74
2023/06/12 00:03:40;;;;;;;4.53;2.80;;;14.50;99.20;;;;;;5074886;28;20556;-74
2023/06/12 00:06:09;;;;;;;5.10;2.90;;;14.50;99.20;;;;;;5082688;28;20867;-74
2023/06/12 00:08:41;;;;;;;4.60;2.70;;;14.50;99.50;;;;;;5081607;28;20419;-74
2023/06/12 00:11:09;;;;;;;4.70;2.90;;;14.40;99.70;;;;;;5087084;28;20459;-74
2023/06/12 00:13:36;;;;;;;3.90;2.33;;;14.40;99.80;;;;;;5074094;28;20411;-74
2023/06/12 00:16:02;;;;;;;4.80;3.10;;;14.40;99.70;;;;;;5075089;28;20452;-74
2023/06/12 00:18:28;;;;;;;5.93;2.70;;;14.30;99.80;;;;;;5077171;28;20456;-74
2023/06/12 00:20:53;;;;;;;5.67;3.17;;;14.20;99.90;;;;;;5086064;28;20807;-74
2023/06/12 00:23:19;;;;;;;3.60;2.27;;;14.20;99.90;;;;;;5076550;28;20187;-74
2023/06/12 00:25:45;;;;;;;7.37;3.07;;;14.20;99.90;;;;;;5094942;28;20518;-74
2023/06/12 00:28:10;;;;;;;4.13;2.10;;;14.20;99.90;;;;;;5092785;28;20251;-74
2023/06/12 00:30:36;;;;;;;6.70;3.00;;;14.20;99.90;;;;;;5074498;28;20177;-74
2023/06/12 00:33:02;;;;;;;5.33;3.17;;;14.20;99.90;;;;;;5090009;28;20297;-74
2023/06/12 00:35:27;;;;;;;6.37;3.43;;;14.10;99.90;;;;;;5093856;28;20169;-74
2023/06/12 00:37:53;;;;;;;4.67;3.07;;;14.10;99.90;;;;;;5093662;28;20554;-74
2023/06/12 00:40:18;;;;;;;3.70;2.63;;;14.10;99.90;;;;;;5074408;28;20644;-74
2023/06/12 00:42:49;;;;;;;5.37;2.80;;;14.00;99.90;;;;;;5088932;28;20194;-74
2023/06/12 00:45:16;;;;;;;7.80;3.80;;;13.90;99.90;;;;;;5082722;28;20189;-74
2023/06/12 00:47:45;;;;;;;5.37;2.40;;;13.90;99.90;;;;;;5074318;28;20542;-74
2023/06/12 00:50:12;;;;;;;3.33;2.73;;;13.90;99.90;;;;;;5084621;28;20453;-74
2023/06/12 00:52:44;;;;;;;5.00;2.87;;;13.90;99.90;;;;;;5080762;28;20453;-74
2023/06/12 00:55:11;;;;;;;4.50;2.53;;;13.90;99.90;;;;;;5094458;28;20418;-74
2023/06/12 00:57:38;;;;;;;5.50;3.13;;;13.90;99.90;;;;;;5089475;28;20430;-74
2023/06/12 01:00:07;;;;;;;7.57;3.77;;;13.90;99.90;;;;;;5086034;28;20418;-74
2023/06/12 01:02:39;;;;;;;6.30;3.10;;;13.90;99.90;;;;;;5087597;28;20411;-74
2023/06/12 01:05:15;;;;;;;4.23;3.00;;;13.90;99.90;;;;;;5074106;28;20955;-74
2023/06/12 01:07:48;;;;;;;9.33;2.67;;;13.90;99.90;;;;;;5069649;28;20410;-73
2023/06/12 01:10:22;;;;;;;5.93;3.50;;;13.90;99.90;;;;;;5094184;28;20415;-74
2023/06/12 01:12:49;;;;;;;6.60;3.70;;;13.90;99.90;;;;;;5084468;28;20815;-74
2023/06/12 01:15:15;;;;;;;7.67;2.97;;;13.90;99.90;;;;;;5073688;28;20415;-74
2023/06/12 01:17:41;;;;;;;4.10;2.67;;;13.90;99.90;;;;;;5074010;28;20411;-74
2023/06/12 01:20:11;;;;;;;4.40;2.77;;;13.90;99.90;;;;;;5076592;28;21077;-74
2023/06/12 01:22:41;;;;;;;5.43;3.20;;;14.00;99.90;;;;;;5093576;28;20184;-74
2023/06/12 01:25:49;;;;;;;8.67;2.70;;;14.00;99.90;;;;;;5084829;28;20807;-74
2023/06/12 01:28:39;;;;;;;8.47;2.67;;;14.00;99.90;;;;;;5018194;28;20484;-74
2023/06/12 01:31:56;;;;;;;6.87;3.63;;;13.90;99.90;;;;;;5066881;28;20554;-74
2023/06/12 01:34:27;;;;;;;7.33;3.57;;;13.80;99.90;;;;;;5027520;28;20431;-74
2023/06/12 01:37:05;;;;;;;7.53;3.50;;;13.90;99.90;;;;;;5066869;28;20407;-74
2023/06/12 01:39:38;;;;;;;5.53;2.83;;;13.90;99.90;;;;;;5091970;28;20417;-73
2023/06/12 01:42:07;;;;;;;4.77;2.90;;;13.80;99.90;;;;;;5073212;28;20425;-73
2023/06/12 01:44:33;;;;;;;5.00;3.00;;;13.80;99.90;;;;;;5089353;28;20499;-74
2023/06/12 01:46:59;;;;;;;5.00;3.30;;;13.80;99.90;;;;;;5082487;28;20419;-73
2023/06/12 01:49:25;;;;;;;4.73;3.10;;;13.70;99.90;;;;;;5076935;28;20461;-74
2023/06/12 01:51:50;;;;;;;3.63;2.50;;;13.70;99.90;;;;;;5082694;28;20216;-74
2023/06/12 01:54:18;;;;;;;3.40;2.33;;;13.60;99.90;;;;;;5073153;28;20649;-74
2023/06/12 01:56:44;;;;;;;5.60;2.60;;;13.60;99.90;;;;;;5062359;28;20174;-74
2023/06/12 01:59:11;;;;;;;6.30;2.67;;;13.70;99.90;;;;;;5075736;28;20419;-74
2023/06/12 02:01:38;;;;;;;7.47;3.40;;;13.60;99.90;;;;;;5083523;28;20242;-74
2023/06/12 02:04:04;;;;;;;4.33;2.67;;;13.60;99.90;;;;;;5075616;28;20415;-74
2023/06/12 02:06:29;;;;;;;6.57;3.03;;;13.50;99.90;;;;;;5062841;28;20447;-73
2023/06/12 02:08:55;;;;;;;5.20;3.10;;;13.50;99.90;;;;;;5066343;28;20185;-73
2023/06/12 02:11:21;;;;;;;20.07;3.13;;;13.50;99.90;;;;;;5062885;28;20306;-73
2023/06/12 02:13:46;;;;;;;7.33;3.30;;;13.50;99.90;;;;;;5072196;28;20726;-74
2023/06/12 02:16:14;;;;;;;4.80;2.63;;;13.40;99.90;;;;;;5078691;28;20274;-74
2023/06/12 02:18:40;;;;;;;4.27;3.03;;;13.40;99.90;;;;;;5084931;28;20253;-74
2023/06/12 02:21:06;;;;;;;9.43;2.93;;;13.30;99.90;;;;;;5072725;28;20554;-74
2023/06/12 02:23:31;;;;;;;4.57;3.07;;;13.30;99.90;;;;;;5088507;28;20434;-73
2023/06/12 02:25:57;;;;;;;6.07;3.10;;;13.30;99.90;;;;;;5076886;28;20192;-73
2023/06/12 02:28:22;;;;;;;18.20;3.60;;;13.30;99.90;;;;;;5072684;28;20528;-73
2023/06/12 02:30:48;;;;;;;5.30;3.40;;;13.30;99.90;;;;;;5080434;28;20575;-74
2023/06/12 02:33:14;;;;;;;7.10;3.37;;;13.20;99.90;;;;;;5094923;28;20184;-74
2023/06/12 02:35:40;;;;;;;6.00;2.73;;;13.20;99.90;;;;;;5081962;28;20177;-74
2023/06/12 02:38:06;;;;;;;8.50;3.20;;;13.20;99.90;;;;;;5059299;28;20420;-74
2023/06/12 02:40:31;;;;;;;7.00;3.00;;;13.10;99.90;;;;;;5072510;28;20185;-74
2023/06/12 02:42:57;;;;;;;6.23;2.57;;;13.10;99.90;;;;;;5075615;28;20191;-74
2023/06/12 02:45:25;;;;;;;5.60;3.13;;;13.10;99.90;;;;;;5081166;28;20195;-74
2023/06/12 02:47:51;;;;;;;5.67;3.00;;;13.10;99.90;;;;;;5072247;28;20553;-74
2023/06/12 02:50:17;;;;;;;5.03;2.77;;;13.10;99.90;;;;;;5072177;28;20477;-74
2023/06/12 02:52:43;;;;;;;4.13;2.73;;;13.10;99.90;;;;;;5075856;28;20229;-74
2023/06/12 02:55:09;;;;;;;6.40;2.87;;;13.10;99.90;;;;;;5081170;28;20191;-74
2023/06/12 02:57:35;;;;;;;8.57;3.87;;;13.00;99.90;;;;;;5089560;28;20185;-73
2023/06/12 03:00:01;;;;;;;3.20;2.37;;;13.00;99.90;;;;;;5074346;28;20192;-73
2023/06/12 03:02:27;;;;;;;6.27;3.00;;;13.00;99.90;;;;;;5075946;28;20426;-73
2023/06/12 03:04:54;;;;;;;6.30;2.80;;;13.00;99.90;;;;;;5081244;28;20919;-74
2023/06/12 03:07:21;;;;;;;6.57;3.37;;;12.90;99.90;;;;;;5072226;28;20451;-74
2023/06/12 03:09:47;;;;;;;6.20;2.70;;;12.90;99.90;;;;;;5072112;28;20422;-74
2023/06/12 03:12:13;;;;;;;3.67;2.40;;;12.80;99.90;;;;;;5079324;28;20806;-73
2023/06/12 03:14:38;;;;;;;5.13;3.10;;;12.90;99.90;;;;;;5075735;28;20244;-73
2023/06/12 03:17:05;;;;;;;5.37;2.90;;;12.80;99.90;;;;;;5078087;28;20180;-74
2023/06/12 03:19:31;;;;;;;7.10;3.23;;;12.80;99.90;;;;;;5081583;28;20181;-74
2023/06/12 03:21:57;;;;;;;6.30;3.77;;;12.70;99.90;;;;;;5076583;28;20928;-73
2023/06/12 03:24:26;;;;;;;5.93;3.20;;;12.70;99.90;;;;;;5089437;28;20418;-73
2023/06/12 03:26:51;;;;;;;6.67;3.50;;;12.70;99.90;;;;;;5064257;28;20813;-73
2023/06/12 03:29:17;;;;;;;6.00;3.50;;;12.60;99.90;;;;;;5069837;28;20444;-73
2023/06/12 03:31:42;;;;;;;4.30;2.73;;;12.70;99.90;;;;;;5074223;28;20215;-73
2023/06/12 03:34:08;;;;;;;9.80;3.13;;;12.70;99.90;;;;;;5076991;28;20682;-73
2023/06/12 03:36:36;;;;;;;6.03;3.20;;;12.70;99.90;;;;;;5072477;28;20185;-74
2023/06/12 03:39:03;;;;;;;6.50;2.60;;;12.70;99.90;;;;;;5084108;28;20385;-73
2023/06/12 03:41:30;;;;;;;5.03;3.10;;;12.70;99.90;;;;;;5077176;28;20950;-74
2023/06/12 03:43:56;;;;;;;6.27;3.40;;;12.80;99.90;;;;;;5083581;28;20421;-74
2023/06/12 03:46:21;;;;;;;4.93;3.13;;;12.60;99.90;;;;;;5073287;28;20427;-74
2023/06/12 03:48:47;;;;;;;4.70;3.17;;;12.70;99.90;;;;;;5072054;28;20181;-74
2023/06/12 03:51:13;;;;;;;4.40;2.50;;;12.60;99.90;;;;;;5071668;28;20262;-74
2023/06/12 03:53:39;;;;;;;9.70;3.87;;;12.70;99.90;;;;;;5072120;28;20196;-74
2023/06/12 03:56:05;;;;;;;13.47;3.67;;;12.70;99.90;;;;;;5076587;28;20499;-74
2023/06/12 03:58:31;;;;;;;9.13;3.90;;;12.70;99.90;;;;;;5070225;28;20445;-73
2023/06/12 04:00:56;;;;;;;6.43;2.67;;;12.80;99.90;;;;;;5082536;28;20190;-73
2023/06/12 04:03:24;;;;;;;5.53;3.10;;;12.70;99.90;;;;;;5064575;28;20223;-73
2023/06/12 04:05:50;;;;;;;6.43;3.20;;;12.80;99.90;;;;;;5071502;28;20192;-74
2023/06/12 04:08:16;;;;;;;8.10;3.10;;;12.80;99.90;;;;;;5084191;28;20414;-73
2023/06/12 04:10:45;;;;;;;4.00;2.63;;;12.80;99.90;;;;;;5072919;28;20468;-73
2023/06/12 04:13:11;;;;;;;4.03;2.60;;;12.90;99.90;;;;;;5081230;28;20422;-73
2023/06/12 04:15:38;;;;;;;5.03;2.60;;;12.90;99.90;;;;;;5076277;28;20442;-73
2023/06/12 04:18:05;;;;;;;5.07;2.90;;;12.90;99.90;;;;;;5082217;28;20960;-73
2023/06/12 04:20:32;;;;;;;4.20;2.63;;;13.00;99.90;;;;;;5086444;28;20754;-73
2023/06/12 04:22:58;;;;;;;4.80;3.30;;;13.00;99.90;;;;;;5079265;28;20751;-72
2023/06/12 04:25:28;;;;;;;5.07;2.10;;;13.00;99.90;;;;;;5082249;28;20415;-73
2023/06/12 04:27:53;;;;;;;6.23;2.70;;;13.00;99.90;;;;;;5081039;28;20502;-73
2023/06/12 04:30:21;;;;;;;3.93;2.60;;;13.10;99.90;;;;;;5081607;28;20494;-73
2023/06/12 04:32:48;;;;;;;5.23;3.30;;;13.10;99.90;;;;;;5094777;28;20631;-73
2023/06/12 04:35:16;;;;;;;5.60;3.17;;;13.10;99.90;;;;;;5075613;28;20407;-73
2023/06/12 04:37:42;;;;;;;5.30;3.10;;;13.20;99.90;;;;;;5075167;28;20854;-73
2023/06/12 04:40:11;;;;;;;4.50;2.20;;;13.20;99.90;;;;;;5075143;28;20451;-73
2023/06/12 04:42:37;;;;;;;4.00;2.77;;;13.30;99.90;;;;;;5089862;28;20880;-73
2023/06/12 04:45:05;;;;;;;5.07;3.30;;;13.40;99.90;;;;;;5087692;28;20416;-73
2023/06/12 04:47:31;;;;;;;8.70;4.10;;;13.40;99.90;;;;;;5073295;28;20522;-73
2023/06/12 04:49:57;;;;;;;5.43;3.00;;;13.50;99.90;;;;;;5063236;28;20517;-73
2023/06/12 04:52:24;;;;;;;4.17;2.87;;;13.60;99.90;;;;;;5061522;28;20598;-73
2023/06/12 04:54:52;;;;;;;4.13;3.30;;;13.60;99.90;;;;;;5083864;28;20464;-73
2023/06/12 04:57:18;;;;;;;3.93;3.03;;;13.80;99.90;;;;;;5078225;28;20713;-73
2023/06/12 04:59:45;;;;;;;6.30;3.37;;;13.80;99.90;;;;;;5078995;28;20504;-73
2023/06/12 05:02:11;;;;;;;8.27;4.23;;;13.90;99.90;;;;;;5079707;28;20517;-73
2023/06/12 05:04:38;;;;;;;6.10;3.60;;;14.00;99.90;;;;;;5059539;28;20457;-73
2023/06/12 05:07:16;;;;;;;8.73;4.53;;;14.00;99.90;;;;;;5075012;28;20415;-73
2023/06/12 05:09:46;;;;;;;5.13;3.10;;;14.10;99.90;;;;;;5074916;28;20453;-72
2023/06/12 05:12:11;;;;;;;7.27;3.20;;;14.20;99.90;;;;;;5056793;28;20467;-73
2023/06/12 05:14:41;;;;;;;6.00;3.97;;;14.20;99.90;;;;;;5072914;28;20526;-72
2023/06/12 05:17:07;;;;;;;5.57;3.17;;;14.30;99.90;;;;;;5074380;28;20474;-72
2023/06/12 05:19:35;;;;;;;4.00;2.57;;;14.40;99.90;;;;;;5061917;28;20958;-72
2023/06/12 05:22:00;;;;;;;5.87;3.13;;;14.50;99.90;;;;;;5072452;28;20481;-73
2023/06/12 05:24:26;;;;;;;8.77;3.70;;;14.60;99.90;;;;;;5074667;28;20419;-72
2023/06/12 05:26:51;;;;;;;3.93;2.97;;;14.70;99.90;;;;;;5074502;28;20747;-72
2023/06/12 05:29:17;;;;;;;5.77;3.10;;;14.90;99.90;;;;;;5073061;28;20201;-72
2023/06/12 05:31:43;;;;;;;5.40;3.13;;;15.00;99.90;;;;;;5074154;28;20243;-72
2023/06/12 05:34:09;;;;;;;4.27;2.77;;;15.20;99.90;;;;;;5063064;28;20622;-72
2023/06/12 05:36:36;;;;;;;4.03;2.60;;;15.40;99.90;;;;;;5068073;28;20530;-72
2023/06/12 05:39:03;;;;;;;7.20;3.30;;;15.50;99.90;;;;;;5062851;28;20181;-72
2023/06/12 05:41:28;;;;;;;5.00;2.90;;;15.60;99.90;;;;;;5058748;28;20892;-72
2023/06/12 05:43:54;;;;;;;4.03;2.50;;;15.80;99.90;;;;;;5073422;28;20414;-72
2023/06/12 05:46:20;;;;;;;4.20;2.03;;;16.00;99.90;;;;;;5071600;28;20188;-72
2023/06/12 05:48:45;;;;;;;6.50;2.80;;;16.20;99.90;;;;;;5074052;28;20577;-72
2023/06/12 05:51:11;;;;;;;11.93;3.53;;;16.30;99.90;;;;;;5073553;28;20212;-72
2023/06/12 05:53:37;;;;;;;5.20;3.00;;;16.30;99.90;;;;;;5073754;28;20613;-72
2023/06/12 05:56:02;;;;;;;6.83;3.67;;;16.60;99.90;;;;;;5055775;28;20185;-72
2023/06/12 05:58:28;;;;;;;5.80;3.00;;;16.70;99.90;;;;;;5065292;28;20190;-72
2023/06/12 06:00:55;;;;;;;7.33;3.50;;;16.80;99.90;;;;;;5073044;28;20181;-71
2023/06/12 06:03:23;;;;;;;4.03;2.70;;;16.90;99.90;;;;;;5084755;28;20172;-72
2023/06/12 06:05:49;;;;;;;5.17;3.30;;;16.90;99.80;;;;;;5087997;28;20461;-71
2023/06/12 06:08:15;;;;;;;5.90;2.80;;;17.10;99.90;;;;;;5061273;28;20416;-72
2023/06/12 06:10:41;;;;;;;7.20;3.60;;;17.20;99.90;;;;;;5072192;28;20423;-71
2023/06/12 06:13:07;;;;;;;5.37;2.73;;;17.30;99.40;;;;;;5061132;28;20181;-72
2023/06/12 06:15:33;;;;;;;5.30;3.10;;;17.40;98.90;;;;;;5072009;28;20224;-72
2023/06/12 06:17:58;;;;;;;5.30;2.80;;;17.40;99.30;;;;;;5072553;28;20451;-74
2023/06/12 06:20:24;;;;;;;9.60;2.90;;;17.50;98.70;;;;;;5067519;28;20185;-73
2023/06/12 06:22:50;;;;;;;3.10;2.10;;;17.40;98.80;;;;;;5054116;28;20174;-72
2023/06/12 06:25:17;;;;;;;3.90;2.37;;;17.50;98.80;;;;;;5072863;28;20189;-72
2023/06/12 06:27:42;;;;;;;4.23;2.90;;;17.70;98.60;;;;;;5072734;28;20185;-72
2023/06/12 06:30:08;;;;;;;4.80;2.90;;;17.80;98.80;;;;;;5067277;28;20438;-71
2023/06/12 06:32:34;;;;;;;5.00;2.83;;;17.90;98.40;;;;;;5062537;28;20220;-72
2023/06/12 06:35:00;;;;;;;4.90;2.70;;;18.10;99.00;;;;;;5059202;28;20212;-72
2023/06/12 06:37:25;;;;;;;11.63;4.13;;;18.20;97.60;;;;;;5072570;28;20226;-72
2023/06/12 06:39:51;;;;;;;6.30;2.93;;;18.30;97.70;;;;;;5067518;28;20209;-74
2023/06/12 06:42:16;;;;;;;3.77;2.90;;;18.40;97.20;;;;;;5063270;28;20554;-73
2023/06/12 06:44:42;;;;;;;5.40;2.90;;;18.40;96.50;;;;;;5070270;28;20227;-72
2023/06/12 06:47:10;;;;;;;5.53;3.10;;;18.60;96.70;;;;;;5059738;28;20716;-73
2023/06/12 06:49:37;;;;;;;23.87;3.60;;;18.60;96.10;;;;;;5070609;28;20254;-73
2023/06/12 06:52:05;;;;;;;3.60;2.83;;;18.60;95.90;;;;;;5059486;28;20553;-73
2023/06/12 06:54:30;;;;;;;5.40;3.33;;;18.70;96.10;;;;;;5070931;28;20422;-72
2023/06/12 06:56:56;;;;;;;6.60;2.87;;;18.90;95.60;;;;;;5059882;28;20420;-72
2023/06/12 06:59:22;;;;;;;6.80;4.27;;;19.00;95.70;;;;;;5070996;28;20189;-73
2023/06/12 07:01:48;;;;;;;5.20;2.80;;;19.20;94.90;;;;;;5058292;28;20512;-72
2023/06/12 07:04:14;;;;;;;7.43;3.13;;;19.30;94.60;;;;;;5057224;28;20465;-74
2023/06/12 07:06:40;;;;;;;6.70;2.87;;;19.50;94.60;;;;;;5071639;28;20264;-73
2023/06/12 07:09:07;;;;;;;5.17;3.50;;;19.60;94.40;;;;;;5052482;28;20186;-72
2023/06/12 07:11:32;;;;;;;7.73;2.93;;;19.80;94.20;;;;;;5051281;28;20328;-74
2023/06/12 07:13:58;;;;;;;4.73;2.70;;;20.00;93.00;;;;;;5070747;28;20446;-73
2023/06/12 07:16:24;;;;;;;5.60;2.87;;;20.00;94.40;;;;;;5071516;28;20181;-74
2023/06/12 07:18:49;;;;;;;8.60;4.17;;;20.20;93.30;;;;;;5051957;28;20182;-74
2023/06/12 07:21:15;;;;;;;8.30;3.80;;;20.30;92.40;;;;;;5063730;28;20260;-74
2023/06/12 07:23:41;;;;;;;8.20;2.90;;;20.50;92.60;;;;;;5065072;28;20311;-74
2023/06/12 07:26:06;;;;;;;7.77;3.13;;;20.90;92.20;;;;;;5051133;28;20853;-74
2023/06/12 07:28:32;;;;;;;4.23;2.83;;;21.10;91.70;;;;;;5050979;28;20298;-74
2023/06/12 07:30:58;;;;;;;7.47;3.10;;;21.40;91.10;;;;;;5069633;28;20264;-74
2023/06/12 07:33:23;;;;;;;3.90;2.20;;;21.80;90.80;;;;;;5070495;28;20201;-74
2023/06/12 07:35:49;;;;;;;3.67;2.50;;;22.10;89.90;;;;;;5071051;28;20181;-74
2023/06/12 07:38:15;;;;;;;4.27;2.80;;;22.40;88.80;;;;;;5070790;28;20173;-74
2023/06/12 07:40:40;;;;;;;3.97;2.50;;;22.70;89.20;;;;;;5070892;28;20213;-73
2023/06/12 07:43:06;;;;;;;7.90;2.80;;;23.40;85.50;;;;;;5065077;28;20383;-73
2023/06/12 07:45:32;;;;;;;4.10;2.57;;;24.70;81.00;;;;;;5067340;28;20172;-72
2023/06/12 07:47:57;;;;;;;5.03;2.95;;;24.60;82.20;;;;;;5074362;28;20306;-72
2023/06/12 07:50:24;;;;;;;4.03;2.67;;;25.20;80.10;;;;;;5074327;28;20636;-73
2023/06/12 07:52:50;;;;;;;6.28;3.10;;;26.10;76.20;;;;;;5074031;28;20203;-73
2023/06/12 07:55:16;;;;;;;5.60;3.40;;;26.30;76.00;;;;;;5074001;28;20177;-73
2023/06/12 07:57:42;;;;;;;6.07;3.70;;;27.00;73.20;;;;;;5069257;28;20630;-72
2023/06/12 08:00:08;;;;;;;5.55;3.15;;;26.70;72.70;;;;;;5065812;28;20182;-73
2023/06/12 08:02:35;;;;;;;3.25;2.13;;;26.80;70.90;;;;;;5074033;28;20692;-73
2023/06/12 08:05:03;;;;;;;4.53;2.75;;;27.80;68.80;;;;;;5074177;28;20598;-73
2023/06/12 08:07:30;;;;;;;3.80;2.45;;;27.70;67.60;;;;;;5074129;28;20278;-73
2023/06/12 08:09:56;;;;;;;7.43;3.78;;;28.00;65.90;;;;;;5073766;28;20226;-73
2023/06/12 08:12:22;;;;;;;4.22;2.63;;;27.80;64.70;;;;;;5073634;28;20208;-73
2023/06/12 08:14:48;;;;;;;6.32;2.22;;;27.70;63.80;;;;;;5071029;28;20181;-70
2023/06/12 08:17:14;;;;;;;4.38;2.50;;;27.00;65.40;;;;;;5073917;28;20173;-73
2023/06/12 08:19:41;;;;;;;5.70;1.98;;;27.70;62.00;;;;;;5073761;28;20283;-72
2023/06/12 08:22:11;;;;;;;4.20;2.63;;;27.70;61.50;;;;;;5073469;28;20318;-71
2023/06/12 08:24:38;;;;;;;5.68;3.17;;;26.80;62.50;;;;;;5070687;28;20636;-71
2023/06/12 08:27:04;;;;;;;4.10;2.13;;;27.00;62.00;;;;;;5069311;28;20212;-72
2023/06/12 08:29:30;;;;;;;4.82;2.97;;;26.80;62.20;;;;;;5069683;28;20189;-72
2023/06/12 08:31:56;;;;;;;4.47;2.42;;;26.90;62.90;;;;;;5069371;28;20201;-72
2023/06/12 08:34:25;;;;;;;4.72;2.67;;;27.90;60.40;;;;;;5066924;28;20222;-73
2023/06/12 08:36:52;;;;;;;5.70;3.20;;;27.90;60.80;;;;;;5068909;28;20226;-72
2023/06/12 08:39:18;;;;;;;3.50;2.45;;;27.80;61.20;;;;;;5065184;28;20168;-72
2023/06/12 08:42:02;;;;;;;4.80;3.00;;;27.50;59.60;;;;;;5062062;28;20184;-72
2023/06/12 08:44:29;;;;;;;7.32;3.22;;;27.20;63.30;;;;;;5061749;28;20635;-73
2023/06/12 08:46:56;;;;;;;3.72;2.15;;;27.70;59.30;;;;;;5065851;28;20184;-73
2023/06/12 08:49:22;;;;;;;4.63;2.67;;;27.00;59.80;;;;;;5066917;28;20633;-73
2023/06/12 08:51:51;;;;;;;10.95;2.28;;;27.50;58.20;;;;;;5064542;28;20248;-72
2023/06/12 08:54:17;;;;;;;4.75;2.47;;;26.70;54.60;;;;;;5069356;28;20176;-73
2023/06/12 08:56:45;;;;;;;3.45;2.00;;;26.60;55.20;;;;;;5072754;28;20180;-71
2023/06/12 08:59:11;;;;;;;2.80;2.08;;;26.50;54.60;;;;;;5073396;28;20632;-75
2023/06/12 09:01:38;;;;;;;3.60;2.05;;;27.00;55.30;;;;;;5073121;28;20628;-72
2023/06/12 09:04:09;;;;;;;5.85;2.38;;;27.20;55.10;;;;;;5059854;28;20190;-71
2023/06/12 09:06:37;;;;;;;5.03;3.10;;;27.20;55.50;;;;;;5061694;28;20185;-72
2023/06/12 09:09:03;;;;;;;3.72;2.40;;;27.30;56.00;;;;;;5071706;28;20211;-74
2023/06/12 09:11:29;;;;;;;4.78;2.30;;;27.40;56.00;;;;;;5073236;28;20702;-71
2023/06/12 09:14:00;;;;;;;4.50;2.22;;;27.30;57.20;;;;;;5072676;28;20208;-74
2023/06/12 09:16:27;;;;;;;4.35;2.40;;;26.90;58.00;;;;;;5064175;28;20177;-74
2023/06/12 09:18:54;;;;;;;4.55;2.22;;;27.00;60.20;;;;;;5072550;28;20255;-75
2023/06/12 09:21:23;;;;;;;3.17;2.08;;;27.30;56.40;;;;;;5072850;28;20180;-73
2023/06/12 09:23:55;;;;;;;4.43;2.65;;;27.70;57.00;;;;;;5072231;28;20188;-74
2023/06/12 09:26:24;;;;;;;7.28;3.45;;;28.10;55.50;;;;;;5072301;28;20321;-74
2023/06/12 09:28:51;;;;;;;3.25;2.03;;;28.20;55.00;;;;;;5072516;28;20176;-75
2023/06/12 09:31:17;;;;;;;5.60;2.30;;;28.10;54.60;;;;;;5084970;28;20211;-74
2023/06/12 09:33:44;;;;;;;5.18;2.63;;;27.50;56.90;;;;;;5060011;28;20180;-72
2023/06/12 09:36:11;;;;;;;4.63;2.80;;;27.20;57.20;;;;;;5059213;28;20184;-75
2023/06/12 09:38:37;;;;;;;4.15;2.47;;;27.30;56.60;;;;;;5073163;28;20176;-72
2023/06/12 09:41:05;;;;;;;5.60;2.42;;;26.70;57.10;;;;;;5058893;28;20192;-73
2023/06/12 09:43:31;;;;;;;8.82;2.60;;;27.10;56.60;;;;;;5071736;28;20263;-74
2023/06/12 09:45:57;;;;;;;4.60;2.20;;;27.30;56.20;;;;;;5072108;28;20241;-74
2023/06/12 09:48:23;;;;;;;4.78;3.10;;;27.10;56.30;;;;;;5071710;28;20177;-73
2023/06/12 09:50:49;;;;;;;5.30;2.28;;;27.10;56.50;;;;;;5072175;28;20227;-72
2023/06/12 09:53:17;;;;;;;4.70;2.65;;;26.70;57.20;;;;;;5071372;28;20193;-73
2023/06/12 09:55:45;;;;;;;5.55;2.83;;;27.20;56.80;;;;;;5071624;28;20192;-74
2023/06/12 09:58:13;;;;;;;4.60;2.20;;;27.50;55.60;;;;;;5063097;28;20177;-74
2023/06/12 10:00:39;;;;;;;4.30;2.50;;;27.50;56.10;;;;;;5067440;28;20180;-74
2023/06/12 10:03:09;;;;;;;4.22;2.00;;;27.40;54.90;;;;;;5070878;28;20253;-74
2023/06/12 10:05:42;;;;;;;4.35;2.42;;;27.10;57.80;;;;;;5068412;28;20173;-74
2023/06/12 10:08:08;;;;;;;5.38;2.95;;;26.70;57.60;;;;;;5069061;28;20185;-74
2023/06/12 10:10:35;;;;;;;4.53;2.88;;;26.60;56.90;;;;;;5058045;28;20191;-73
2023/06/12 10:13:04;;;;;;;4.10;2.75;;;26.80;56.10;;;;;;5071953;28;20227;-73
2023/06/12 10:15:30;;;;;;;4.68;3.22;;;27.30;56.20;;;;;;5064022;28;20173;-77
2023/06/12 10:17:58;;;;;;;5.18;2.97;;;27.10;56.00;;;;;;5071317;28;20294;-72
2023/06/12 10:20:24;;;;;;;5.55;2.85;;;26.90;57.20;;;;;;5071242;28;20181;-74
2023/06/12 10:22:52;;;;;;;6.00;2.28;;;26.30;58.60;;;;;;5070879;28;20177;-74
2023/06/12 10:25:19;;;;;;;4.50;2.47;;;26.10;59.40;;;;;;5070082;28;20187;-74
2023/06/12 10:27:45;;;;;;;4.60;2.70;;;26.40;58.60;;;;;;5071623;28;20185;-73
2023/06/12 10:30:12;;;;;;;6.30;3.45;;;26.30;57.70;;;;;;5067410;28;20189;-74
2023/06/12 10:32:41;;;;;;;4.43;2.20;;;26.10;58.50;;;;;;5067742;28;20658;-75
2023/06/12 10:35:07;;;;;;;8.20;3.20;;;25.70;59.20;;;;;;5071267;28;20180;-75
2023/06/12 10:37:42;;;;;;;9.50;2.93;;;25.70;59.00;;;;;;5071610;28;20229;-73
2023/06/12 10:40:21;;;;;;;4.00;2.57;;;25.60;60.00;;;;;;5070876;28;20180;-72
2023/06/12 10:42:47;;;;;;;4.57;2.60;;;25.40;59.50;;;;;;5072039;28;20429;-75
2023/06/12 10:45:23;;;;;;;6.30;2.83;;;25.40;59.10;;;;;;5071089;28;20438;-75
2023/06/12 10:48:03;;;;;;;;;;;;;;;;;;;;;
2023/06/12 10:50:36;;;;;;;4.30;2.30;;;25.80;60.40;;;;;;5058891;28;20472;-75
2023/06/12 10:53:23;;;;;;;3.87;2.10;;;25.80;57.20;;;;;;5062008;28;20463;-75
2023/06/12 10:55:53;;;;;;;6.40;3.10;;;25.80;56.80;;;;;;5060575;28;20415;-76
2023/06/12 10:58:20;;;;;;;4.33;2.73;;;25.70;56.60;;;;;;5071522;28;20411;-73
2023/06/12 11:00:51;;;;;;;7.80;2.83;;;25.50;57.50;;;;;;5066138;28;20480;-73
2023/06/12 11:03:22;;;;;;;5.60;2.60;;;25.60;57.40;;;;;;5068338;28;20896;-73
2023/06/12 11:05:51;;;;;;;5.27;2.63;;;25.90;56.30;;;;;;5070672;28;20419;-72
2023/06/12 11:08:18;;;;;;;4.13;2.70;;;25.90;57.10;;;;;;5070938;28;20488;-72
2023/06/12 11:10:44;;;;;;;6.93;3.40;;;25.80;57.70;;;;;;5069552;28;20506;-72
2023/06/12 11:13:09;;;;;;;3.77;2.23;;;25.80;58.00;;;;;;5063673;28;20549;-71
2023/06/12 11:15:46;;;;;;;5.17;2.67;;;25.80;58.60;;;;;;5075790;28;20211;-72
2023/06/12 11:18:12;;;;;;;3.97;2.37;;;26.20;56.90;;;;;;5070443;28;20675;-72
2023/06/12 11:20:39;;;;;;;5.17;3.03;;;26.10;56.60;;;;;;5073903;28;20522;-72
2023/06/12 11:23:05;;;;;;;3.93;2.40;;;26.20;55.10;;;;;;5074442;28;20430;-72
2023/06/12 11:25:44;;;;;;;5.27;2.60;;;26.10;55.90;;;;;;5074631;28;20479;-72
2023/06/12 11:28:12;;;;;;;4.53;2.50;;;25.90;56.10;;;;;;5074791;28;20421;-72
2023/06/12 11:30:38;;;;;;;4.10;2.17;;;26.20;55.50;;;;;;5074874;28;20450;-70
2023/06/12 11:33:13;;;;;;;5.13;2.30;;;26.00;55.90;;;;;;5060304;28;20796;-76
2023/06/12 11:35:47;;;;;;;4.13;1.70;;;26.20;52.70;;;;;;5074768;28;20176;-72
2023/06/12 11:38:18;;;;;;;3.53;1.70;;;25.80;53.70;;;;;;5069554;28;20447;-71
2023/06/12 11:40:45;;;;;;;4.40;2.60;;;25.60;52.60;;;;;;5067282;28;20729;-72
2023/06/12 11:43:11;;;;;;;4.87;2.53;;;25.50;52.90;;;;;;5073849;28;20430;-71
2023/06/12 11:45:43;;;;;;;4.53;2.10;;;25.70;55.40;;;;;;5074172;28;20422;-72
2023/06/12 11:48:14;;;;;;;3.83;2.43;;;26.00;53.30;;;;;;5071593;28;20501;-72
2023/06/12 11:50:41;;;;;;;4.77;2.67;;;26.00;52.90;;;;;;5073955;28;20441;-75
2023/06/12 11:53:07;;;;;;;4.30;2.20;;;26.00;53.60;;;;;;5073598;28;20983;-72
2023/06/12 11:55:33;;;;;;;4.53;2.90;;;26.00;54.00;;;;;;5073823;28;20423;-72
2023/06/12 11:58:01;;;;;;;2.73;2.03;;;26.30;55.20;;;;;;5074241;28;20188;-71
2023/06/12 12:00:30;;;;;;;4.30;2.63;;;25.90;54.30;;;;;;5073837;28;20287;-71
2023/06/12 12:03:01;;;;;;;3.33;2.33;;;26.10;55.60;;;;;;5073462;28;20425;-72
2023/06/12 12:05:31;;;;;;;6.53;2.93;;;26.60;52.30;;;;;;5074169;28;20426;-72
2023/06/12 12:07:59;;;;;;;4.27;2.50;;;26.50;52.30;;;;;;5065017;28;21005;-73
2023/06/12 12:10:27;;;;;;;4.10;2.33;;;26.60;51.30;;;;;;5069309;28;20183;-73
2023/06/12 12:13:00;;;;;;;3.93;2.60;;;26.20;52.70;;;;;;5068473;28;20454;-72
2023/06/12 12:15:29;;;;;;;5.90;2.97;;;26.00;55.00;;;;;;5077958;28;20494;-73
2023/06/12 12:17:56;;;;;;;6.43;3.27;;;26.40;53.30;;;;;;5073414;28;20410;-72
2023/06/12 12:20:23;;;;;;;5.00;2.30;;;26.40;53.80;;;;;;5070799;28;20306;-72
2023/06/12 12:22:54;;;;;;;6.67;2.70;;;26.50;52.60;;;;;;5072257;28;20184;-73
2023/06/12 12:25:25;;;;;;;5.23;2.40;;;26.60;52.90;;;;;;5072417;28;20564;-72
2023/06/12 12:27:53;;;;;;;4.10;2.53;;;26.60;53.70;;;;;;5072775;28;20177;-72
2023/06/12 12:30:20;;;;;;;5.10;2.60;;;26.60;52.80;;;;;;5058230;28;20176;-72
2023/06/12 12:32:55;;;;;;;3.77;2.23;;;26.70;51.60;;;;;;5071440;28;20303;-71
2023/06/12 12:35:21;;;;;;;3.30;2.33;;;26.80;51.40;;;;;;5072370;28;20640;-71
2023/06/12 12:37:50;;;;;;;3.33;1.90;;;26.80;52.90;;;;;;5072993;28;20177;-72
2023/06/12 12:40:16;;;;;;;5.60;2.50;;;26.60;51.80;;;;;;5072393;28;20323;-71
2023/06/12 12:42:44;;;;;;;8.43;2.47;;;26.50;52.60;;;;;;5071499;28;20278;-72
2023/06/12 12:45:11;;;;;;;5.17;2.47;;;26.60;52.00;;;;;;5062920;28;20562;-72
2023/06/12 12:47:40;;;;;;;5.43;2.67;;;26.40;51.10;;;;;;5072137;28;20212;-72
2023/06/12 12:50:07;;;;;;;5.07;1.90;;;26.50;51.40;;;;;;5072117;28;20224;-72